Time;durP1;ratioP1;P1;durP2;ratioP2;P2;SDS_P1;SDS_P2;PMS_P1;PMS_P2;Temp;Humidity;BMP_temperature;BMP_pressure;BME280_temperature;BME280_humidity;BME280_pressure;Samples;Min_cycle;Max_cycle;Signal;HPM_P1;HPM_P2
2022/07/15 00:01:15;;;;;;;1.27;0.50;;;25.80;39.10;;;;;;5014666;28;20099;-56
2022/07/15 00:03:41;;;;;;;0.93;0.60;;;25.90;39.10;;;;;;5014753;28;20392;-55
2022/07/15 00:06:07;;;;;;;1.35;0.50;;;25.80;39.10;;;;;;5015314;28;20034;-58
2022/07/15 00:08:32;;;;;;;2.45;0.50;;;25.80;39.10;;;;;;5013415;28;20025;-55
2022/07/15 00:10:58;;;;;;;1.20;0.45;;;25.80;39.10;;;;;;5013661;28;20104;-59
2022/07/15 00:13:25;;;;;;;1.58;0.50;;;25.80;39.10;;;;;;5014783;28;20366;-58
2022/07/15 00:15:51;;;;;;;1.70;0.52;;;25.80;39.10;;;;;;5014156;28;20100;-54
2022/07/15 00:18:17;;;;;;;1.48;0.50;;;25.80;39.10;;;;;;5015119;28;20041;-56
2022/07/15 00:20:43;;;;;;;1.73;0.55;;;25.80;39.10;;;;;;5012793;28;20357;-58
2022/07/15 00:23:09;;;;;;;1.05;0.40;;;25.80;39.10;;;;;;5014262;28;20034;-53
2022/07/15 00:25:35;;;;;;;1.52;0.57;;;25.70;39.10;;;;;;5015265;28;20426;-53
2022/07/15 00:28:03;;;;;;;1.02;0.30;;;25.70;39.10;;;;;;5014589;28;20088;-55
2022/07/15 00:30:34;;;;;;;1.65;0.45;;;25.70;39.10;;;;;;5015441;28;20077;-56
2022/07/15 00:33:01;;;;;;;1.98;0.40;;;25.70;39.10;;;;;;5014146;28;20053;-54
2022/07/15 00:35:28;;;;;;;1.45;0.60;;;25.70;39.20;;;;;;5014933;28;20065;-50
2022/07/15 00:37:54;;;;;;;1.20;0.52;;;25.70;39.80;;;;;;5012268;28;20473;-53
2022/07/15 00:40:20;;;;;;;1.15;0.50;;;25.60;39.10;;;;;;5012874;28;20113;-55
2022/07/15 00:42:46;;;;;;;1.83;0.60;;;25.60;39.10;;;;;;5013731;28;20120;-56
2022/07/15 00:45:14;;;;;;;1.17;0.50;;;25.60;39.20;;;;;;5014042;28;20057;-55
2022/07/15 00:47:42;;;;;;;0.95;0.40;;;25.60;39.20;;;;;;5015072;28;20044;-56
2022/07/15 00:50:08;;;;;;;1.55;0.50;;;25.60;39.20;;;;;;5014677;28;20057;-58
2022/07/15 00:52:36;;;;;;;2.05;0.40;;;25.60;39.20;;;;;;5017491;28;20330;-52
2022/07/15 00:55:04;;;;;;;1.58;0.50;;;25.60;39.20;;;;;;5018845;28;20038;-56
2022/07/15 00:57:30;;;;;;;1.55;0.50;;;25.60;39.20;;;;;;5019151;28;20041;-51
2022/07/15 01:00:01;;;;;;;1.77;0.57;;;25.60;39.30;;;;;;5016635;28;20030;-52
2022/07/15 01:02:27;;;;;;;2.30;0.50;;;25.60;39.30;;;;;;5017171;28;20045;-53
2022/07/15 01:04:54;;;;;;;2.63;0.70;;;25.50;39.20;;;;;;5018464;28;20042;-51
2022/07/15 01:07:20;;;;;;;1.10;0.38;;;25.50;39.20;;;;;;5018785;28;20030;-53
2022/07/15 01:09:47;;;;;;;1.30;0.68;;;25.50;39.30;;;;;;5016542;28;20030;-54
2022/07/15 01:12:13;;;;;;;1.35;0.43;;;25.50;39.30;;;;;;5016807;28;20036;-56
2022/07/15 01:14:38;;;;;;;1.67;0.40;;;25.50;39.30;;;;;;5017062;28;20353;-54
2022/07/15 01:17:10;;;;;;;1.20;0.47;;;25.50;39.30;;;;;;5016667;28;20113;-56
2022/07/15 01:19:37;;;;;;;1.40;0.50;;;25.50;39.40;;;;;;5016579;28;20111;-56
2022/07/15 01:22:05;;;;;;;1.90;0.60;;;25.50;39.40;;;;;;5001771;28;20030;-59
2022/07/15 01:24:31;;;;;;;1.30;0.40;;;25.40;39.30;;;;;;5012954;28;20040;-54
2022/07/15 01:27:28;;;;;;;0.90;0.47;;;25.40;39.30;;;;;;4973634;28;20100;-53
2022/07/15 01:29:55;;;;;;;2.72;0.70;;;25.40;39.40;;;;;;5016656;28;20034;-53
2022/07/15 01:32:23;;;;;;;1.55;0.47;;;25.40;39.40;;;;;;5007440;28;20029;-52
2022/07/15 01:34:51;;;;;;;1.65;0.68;;;25.40;39.40;;;;;;5018356;28;20126;-57
2022/07/15 01:37:18;;;;;;;1.55;0.68;;;25.40;39.40;;;;;;5016966;28;20030;-55
2022/07/15 01:39:50;;;;;;;2.15;0.50;;;25.40;39.40;;;;;;4999863;28;20031;-54
2022/07/15 01:42:16;;;;;;;1.25;0.50;;;25.40;39.50;;;;;;5012141;28;20037;-55
2022/07/15 01:44:42;;;;;;;0.70;0.40;;;25.40;39.50;;;;;;5016693;28;20036;-52
2022/07/15 01:47:09;;;;;;;1.40;0.40;;;25.40;39.50;;;;;;5016118;28;20040;-52
2022/07/15 01:49:35;;;;;;;2.25;0.60;;;25.30;39.50;;;;;;5016381;28;20061;-51
2022/07/15 01:52:10;;;;;;;1.08;0.50;;;25.40;39.50;;;;;;5015284;28;20126;-52
2022/07/15 01:54:38;;;;;;;2.78;0.63;;;25.30;39.50;;;;;;5016588;28;20034;-53
2022/07/15 01:57:04;;;;;;;1.13;0.35;;;25.30;39.50;;;;;;5008659;28;20124;-48
2022/07/15 01:59:34;;;;;;;1.23;0.50;;;25.30;39.60;;;;;;5013213;28;20065;-51
2022/07/15 02:02:00;;;;;;;0.95;0.40;;;25.30;39.60;;;;;;5008973;28;20068;-51
2022/07/15 02:04:26;;;;;;;1.85;0.57;;;25.30;39.60;;;;;;5008057;28;20509;-55
2022/07/15 02:06:52;;;;;;;1.38;0.52;;;25.30;39.60;;;;;;4999117;28;20116;-57
2022/07/15 02:09:20;;;;;;;2.72;0.65;;;25.30;39.60;;;;;;5003090;28;20097;-54
2022/07/15 02:11:48;;;;;;;0.85;0.40;;;25.30;39.70;;;;;;4996869;28;20476;-55
2022/07/15 02:14:14;;;;;;;1.55;0.45;;;25.30;39.70;;;;;;4997044;28;20339;-51
2022/07/15 02:16:41;;;;;;;0.90;0.43;;;25.30;39.70;;;;;;5009743;28;20025;-49
2022/07/15 02:19:16;;;;;;;1.08;0.50;;;25.30;39.70;;;;;;5014192;28;20021;-52
2022/07/15 02:21:42;;;;;;;1.38;0.38;;;25.20;39.70;;;;;;5012597;28;20053;-57
2022/07/15 02:24:08;;;;;;;1.35;0.43;;;25.20;39.70;;;;;;4997556;28;20056;-49
2022/07/15 02:26:35;;;;;;;0.65;0.30;;;25.20;39.80;;;;;;5003994;28;20026;-52
2022/07/15 02:29:01;;;;;;;1.05;0.40;;;25.20;39.80;;;;;;5015834;28;20088;-55
2022/07/15 02:31:28;;;;;;;1.00;0.30;;;25.10;39.70;;;;;;5016970;28;20049;-55
2022/07/15 02:33:54;;;;;;;1.33;0.47;;;25.20;39.80;;;;;;5015816;28;20365;-51
2022/07/15 02:36:20;;;;;;;0.98;0.32;;;25.20;39.90;;;;;;5015894;28;20034;-55
2022/07/15 02:38:46;;;;;;;1.20;0.50;;;25.20;39.90;;;;;;5013840;28;20030;-50
2022/07/15 02:41:14;;;;;;;1.10;0.40;;;25.20;39.90;;;;;;5015638;28;20049;-54
2022/07/15 02:43:43;;;;;;;1.65;0.50;;;25.10;39.80;;;;;;5015860;28;20048;-50
2022/07/15 02:46:11;;;;;;;1.33;0.43;;;25.10;39.80;;;;;;5008520;28;20121;-57
2022/07/15 02:48:37;;;;;;;0.73;0.35;;;25.10;39.90;;;;;;4998433;28;20109;-52
2022/07/15 02:51:04;;;;;;;0.68;0.40;;;25.10;39.90;;;;;;5014795;28;20033;-53
2022/07/15 02:53:30;;;;;;;0.90;0.40;;;25.10;39.90;;;;;;5016354;28;20034;-54
2022/07/15 02:56:01;;;;;;;0.90;0.40;;;25.10;39.90;;;;;;5015320;28;20484;-54
2022/07/15 02:58:29;;;;;;;1.60;0.60;;;25.10;39.90;;;;;;5004042;28;20032;-56
2022/07/15 03:00:55;;;;;;;0.80;0.30;;;25.10;39.90;;;;;;5015295;28;20084;-52
2022/07/15 03:03:21;;;;;;;0.70;0.30;;;25.10;39.90;;;;;;5010515;28;20026;-57
2022/07/15 03:05:48;;;;;;;1.20;0.40;;;25.10;39.90;;;;;;5015213;28;20038;-53
2022/07/15 03:08:15;;;;;;;1.23;0.50;;;25.10;39.90;;;;;;5015233;28;20374;-51
2022/07/15 03:10:41;;;;;;;1.88;0.43;;;25.10;40.00;;;;;;5008970;28;20531;-56
2022/07/15 03:13:08;;;;;;;1.52;0.40;;;25.10;40.00;;;;;;4996263;28;20481;-53
2022/07/15 03:15:34;;;;;;;5.40;0.40;;;25.00;40.00;;;;;;5015260;28;20049;-53
2022/07/15 03:18:00;;;;;;;2.25;0.60;;;25.00;40.00;;;;;;5012703;28;20030;-52
2022/07/15 03:20:26;;;;;;;1.23;0.30;;;25.00;40.00;;;;;;5015422;28;20032;-52
2022/07/15 03:22:52;;;;;;;1.95;0.38;;;25.00;40.00;;;;;;5015110;28;20026;-51
2022/07/15 03:25:18;;;;;;;1.45;0.40;;;25.00;40.00;;;;;;5015889;28;20327;-53
2022/07/15 03:27:44;;;;;;;1.17;0.38;;;25.00;40.00;;;;;;4997006;28;20037;-54
2022/07/15 03:30:12;;;;;;;0.63;0.22;;;25.00;40.00;;;;;;5012836;28;20042;-52
2022/07/15 03:32:39;;;;;;;1.05;0.40;;;25.00;40.00;;;;;;5013448;28;20053;-51
2022/07/15 03:35:06;;;;;;;1.52;0.35;;;25.00;40.00;;;;;;5014666;28;20088;-55
2022/07/15 03:37:35;;;;;;;1.05;0.40;;;24.90;39.90;;;;;;5014786;28;20030;-53
2022/07/15 03:40:03;;;;;;;1.13;0.50;;;24.90;39.90;;;;;;4997039;28;20372;-57
2022/07/15 03:42:29;;;;;;;1.23;0.50;;;24.90;39.90;;;;;;5011713;28;20365;-53
2022/07/15 03:44:55;;;;;;;1.55;0.55;;;24.90;39.90;;;;;;5000765;28;20117;-53
2022/07/15 03:47:21;;;;;;;1.40;0.50;;;24.90;40.00;;;;;;4997866;28;20052;-56
2022/07/15 03:49:47;;;;;;;0.93;0.38;;;25.00;40.00;;;;;;5000020;28;20076;-50
2022/07/15 03:52:13;;;;;;;1.35;0.40;;;24.90;40.00;;;;;;5011403;28;20045;-52
2022/07/15 03:54:39;;;;;;;1.65;0.40;;;24.90;40.00;;;;;;5014418;28;20033;-50
2022/07/15 03:57:05;;;;;;;1.67;0.50;;;24.90;40.00;;;;;;5014294;28;20384;-52
2022/07/15 03:59:31;;;;;;;1.25;0.40;;;24.90;40.00;;;;;;5013600;28;20026;-53
2022/07/15 04:01:57;;;;;;;0.75;0.45;;;24.90;40.00;;;;;;4997183;28;20080;-55
2022/07/15 04:04:22;;;;;;;1.83;0.50;;;24.90;40.00;;;;;;5015359;28;20354;-57
2022/07/15 04:06:50;;;;;;;1.20;0.50;;;24.90;40.10;;;;;;5013216;28;20038;-53
2022/07/15 04:09:16;;;;;;;1.27;0.38;;;24.90;40.10;;;;;;5006102;28;20362;-55
2022/07/15 04:11:44;;;;;;;1.30;0.30;;;24.90;40.10;;;;;;4994943;28;20059;-56
2022/07/15 04:14:14;;;;;;;1.27;0.45;;;24.90;40.10;;;;;;4997528;28;20370;-55
2022/07/15 04:16:41;;;;;;;0.50;0.40;;;24.90;40.20;;;;;;4998270;28;20084;-51
2022/07/15 04:19:19;;;;;;;0.73;0.28;;;24.80;40.10;;;;;;5013361;28;20033;-54
2022/07/15 04:21:46;;;;;;;1.55;0.70;;;24.80;40.10;;;;;;5003471;28;20023;-56
2022/07/15 04:24:12;;;;;;;2.67;0.68;;;24.80;40.20;;;;;;4993766;28;20045;-55
2022/07/15 04:26:38;;;;;;;1.52;0.38;;;24.80;40.20;;;;;;4994146;28;20441;-59
2022/07/15 04:29:04;;;;;;;0.80;0.40;;;24.80;40.20;;;;;;5001845;28;20105;-57
2022/07/15 04:31:30;;;;;;;1.02;0.40;;;24.80;40.20;;;;;;4996940;28;20113;-54
2022/07/15 04:34:06;;;;;;;1.08;0.50;;;24.80;40.20;;;;;;5012984;28;20034;-53
2022/07/15 04:36:32;;;;;;;0.85;0.32;;;24.80;40.20;;;;;;5014252;28;20072;-56
2022/07/15 04:38:58;;;;;;;1.55;0.50;;;24.80;40.20;;;;;;5007700;28;20058;-54
2022/07/15 04:41:24;;;;;;;1.20;0.50;;;24.80;40.20;;;;;;4994399;28;20033;-55
2022/07/15 04:43:49;;;;;;;1.02;0.38;;;24.80;40.30;;;;;;4994479;28;20034;-55
2022/07/15 04:46:16;;;;;;;1.15;0.40;;;24.70;40.30;;;;;;5007022;28;20025;-55
2022/07/15 04:51:30;;;;;;;1.38;0.40;;;24.80;40.30;;;;;;5013514;28;20056;-55
2022/07/15 04:53:56;;;;;;;1.25;0.50;;;24.70;40.30;;;;;;5013452;28;20030;-55
2022/07/15 04:56:22;;;;;;;1.00;0.30;;;24.70;40.30;;;;;;5013273;28;20710;-56
2022/07/15 04:58:57;;;;;;;1.58;0.40;;;24.70;40.30;;;;;;5012341;28;20040;-55
2022/07/15 05:01:22;;;;;;;3.22;1.25;;;24.70;40.30;;;;;;5013504;28;20030;-52
2022/07/15 05:03:48;;;;;;;1.38;0.43;;;24.70;40.40;;;;;;5014807;28;20045;-53
2022/07/15 05:06:18;;;;;;;1.80;0.50;;;24.70;40.30;;;;;;5013766;28;20030;-56
2022/07/15 05:08:44;;;;;;;0.50;0.40;;;24.70;40.30;;;;;;4997658;28;20029;-56
2022/07/15 05:11:10;;;;;;;1.05;0.35;;;24.70;40.40;;;;;;5012846;28;20049;-56
2022/07/15 05:13:37;;;;;;;1.23;0.50;;;24.70;40.40;;;;;;5003221;28;20430;-53
2022/07/15 05:16:04;;;;;;;0.40;0.20;;;24.70;40.40;;;;;;4992758;28;20037;-51
2022/07/15 05:18:30;;;;;;;1.00;0.50;;;24.70;40.40;;;;;;5012568;28;20061;-53
2022/07/15 05:20:58;;;;;;;1.25;0.50;;;24.70;40.40;;;;;;5010397;28;20033;-56
2022/07/15 05:23:27;;;;;;;2.17;0.50;;;24.70;40.40;;;;;;4994083;28;20357;-53
2022/07/15 05:25:58;;;;;;;1.67;0.63;;;24.70;40.40;;;;;;4993282;28;20039;-55
2022/07/15 05:28:24;;;;;;;0.50;0.25;;;24.70;40.40;;;;;;4977053;28;20354;-56
2022/07/15 05:30:50;;;;;;;0.98;0.50;;;24.70;40.40;;;;;;5010828;28;20397;-53
2022/07/15 05:33:17;;;;;;;2.00;0.57;;;24.70;40.50;;;;;;5013251;28;20438;-52
2022/07/15 05:35:43;;;;;;;0.68;0.20;;;24.70;40.40;;;;;;5014494;28;20033;-52
2022/07/15 05:38:12;;;;;;;1.05;0.60;;;24.70;40.50;;;;;;5001678;28;20039;-51
2022/07/15 05:40:38;;;;;;;2.05;0.50;;;24.70;40.50;;;;;;4997318;28;20366;-51
2022/07/15 05:43:04;;;;;;;1.15;0.40;;;24.70;40.50;;;;;;5013820;28;20026;-52
2022/07/15 05:45:34;;;;;;;0.63;0.30;;;24.70;40.50;;;;;;5012956;28;20113;-56
2022/07/15 05:48:04;;;;;;;2.08;0.57;;;24.70;40.60;;;;;;5015588;28;20356;-53
2022/07/15 05:50:35;;;;;;;1.00;0.43;;;24.70;40.60;;;;;;5016059;28;20457;-54
2022/07/15 05:53:01;;;;;;;0.68;0.32;;;24.60;40.60;;;;;;4999546;28;20030;-55
2022/07/15 05:55:28;;;;;;;3.10;0.30;;;24.60;40.50;;;;;;5009435;28;20032;-53
2022/07/15 05:57:55;;;;;;;0.90;0.45;;;24.70;40.60;;;;;;4999542;28;20053;-51
2022/07/15 06:00:25;;;;;;;1.15;0.55;;;24.70;40.60;;;;;;5016692;28;20344;-54
2022/07/15 06:02:51;;;;;;;0.88;0.47;;;24.60;40.60;;;;;;5017347;28;20475;-50
2022/07/15 06:05:24;;;;;;;1.27;0.45;;;24.70;40.60;;;;;;5013179;28;20049;-53
2022/07/15 06:07:55;;;;;;;1.73;0.70;;;24.70;40.60;;;;;;5015285;28;20026;-57
2022/07/15 06:10:26;;;;;;;1.23;0.43;;;24.70;40.70;;;;;;5007714;28;20046;-58
2022/07/15 06:12:55;;;;;;;1.30;0.55;;;24.70;40.70;;;;;;5015498;28;20026;-54
2022/07/15 06:15:23;;;;;;;2.13;0.57;;;24.70;40.70;;;;;;5011502;28;20352;-55
2022/07/15 06:17:49;;;;;;;0.85;0.40;;;24.70;40.70;;;;;;5015280;28;20022;-52
2022/07/15 06:20:18;;;;;;;1.35;0.50;;;24.70;40.80;;;;;;5008796;28;20029;-54
2022/07/15 06:22:43;;;;;;;4.30;0.50;;;24.70;40.80;;;;;;4997398;28;20038;-50
2022/07/15 06:25:10;;;;;;;1.00;0.35;;;24.70;40.90;;;;;;4997507;28;20052;-55
2022/07/15 06:27:37;;;;;;;2.05;0.57;;;24.70;40.90;;;;;;5004956;28;20469;-53
2022/07/15 06:30:05;;;;;;;2.53;0.50;;;24.70;40.90;;;;;;5007910;28;20042;-57
2022/07/15 06:32:31;;;;;;;1.75;0.43;;;24.70;40.90;;;;;;5014380;28;20037;-54
2022/07/15 06:34:58;;;;;;;0.85;0.30;;;24.70;41.00;;;;;;5004576;28;20038;-57
2022/07/15 06:37:25;;;;;;;1.50;0.50;;;24.70;41.00;;;;;;5030095;28;20030;-49
2022/07/15 06:39:52;;;;;;;2.28;0.50;;;24.70;41.00;;;;;;5016744;28;20116;-58
2022/07/15 06:42:20;;;;;;;0.77;0.47;;;24.70;41.00;;;;;;5006214;28;20034;-49
2022/07/15 06:44:58;;;;;;;1.38;0.68;;;24.70;41.00;;;;;;5003308;28;20113;-55
2022/07/15 06:47:25;;;;;;;1.95;0.82;;;24.70;41.00;;;;;;5013398;28;20457;-57
2022/07/15 06:49:50;;;;;;;1.88;0.60;;;24.70;41.00;;;;;;5013611;28;20144;-55
2022/07/15 06:52:17;;;;;;;0.93;0.50;;;24.70;41.00;;;;;;5015575;28;20121;-56
2022/07/15 06:54:43;;;;;;;1.70;0.70;;;24.70;41.00;;;;;;5008078;28;20045;-58
2022/07/15 06:57:09;;;;;;;3.03;0.85;;;24.70;41.00;;;;;;5020947;28;20366;-52
2022/07/15 06:59:36;;;;;;;1.08;0.50;;;24.70;41.00;;;;;;5008938;28;20033;-59
2022/07/15 07:02:03;;;;;;;1.70;0.55;;;24.70;40.90;;;;;;5010403;28;20038;-58
2022/07/15 07:04:30;;;;;;;2.40;0.70;;;24.70;40.90;;;;;;5013353;28;20058;-59
2022/07/15 07:06:56;;;;;;;1.70;0.70;;;24.70;40.90;;;;;;5007399;28;20039;-51
2022/07/15 07:09:23;;;;;;;1.40;0.60;;;24.70;40.90;;;;;;4995525;28;20064;-57
2022/07/15 07:11:50;;;;;;;2.30;0.63;;;24.70;40.90;;;;;;4995764;28;20042;-52
2022/07/15 07:14:16;;;;;;;0.52;0.30;;;24.70;40.90;;;;;;5014557;28;20080;-51
2022/07/15 07:16:42;;;;;;;1.50;0.80;;;24.70;40.90;;;;;;5013398;28;20120;-53
2022/07/15 07:19:13;;;;;;;3.75;0.70;;;24.70;40.80;;;;;;5008367;28;20091;-57
2022/07/15 07:21:40;;;;;;;0.65;0.50;;;24.70;40.80;;;;;;5010475;28;20084;-54
2022/07/15 07:24:09;;;;;;;0.43;0.35;;;24.70;40.70;;;;;;5007505;28;20064;-59
2022/07/15 07:26:35;;;;;;;4.03;0.50;;;24.70;40.70;;;;;;5012632;28;20117;-59
2022/07/15 07:29:01;;;;;;;2.08;0.60;;;24.70;40.70;;;;;;5013937;28;20419;-54
2022/07/15 07:31:27;;;;;;;2.00;0.60;;;24.70;40.60;;;;;;4998823;28;20030;-54
2022/07/15 07:33:57;;;;;;;2.55;0.70;;;24.70;40.60;;;;;;5012752;28;20061;-54
2022/07/15 07:36:23;;;;;;;1.92;0.43;;;24.70;40.40;;;;;;5010750;28;20113;-56
2022/07/15 07:38:50;;;;;;;4.85;0.50;;;24.70;41.00;;;;;;5013948;28;20105;-56
2022/07/15 07:41:16;;;;;;;1.35;0.40;;;24.70;40.40;;;;;;5014291;28;20064;-56
2022/07/15 07:43:42;;;;;;;1.10;0.43;;;24.80;40.50;;;;;;5013470;28;20057;-55
2022/07/15 07:46:08;;;;;;;0.80;0.40;;;24.80;40.40;;;;;;5009850;28;20421;-58
2022/07/15 07:48:35;;;;;;;0.70;0.30;;;24.80;40.30;;;;;;5013532;28;20029;-53
2022/07/15 07:51:02;;;;;;;1.08;0.40;;;24.80;40.30;;;;;;5011104;28;20147;-57
2022/07/15 07:53:29;;;;;;;0.90;0.40;;;24.80;40.20;;;;;;5012409;28;20389;-55
2022/07/15 07:55:56;;;;;;;2.13;0.60;;;24.90;40.10;;;;;;5013054;28;20037;-54
2022/07/15 07:58:22;;;;;;;0.60;0.40;;;24.90;40.00;;;;;;5013740;28;20025;-54
2022/07/15 08:00:48;;;;;;;0.93;0.30;;;24.90;39.90;;;;;;5013643;28;20053;-59
2022/07/15 08:03:15;;;;;;;1.30;0.35;;;24.90;39.80;;;;;;5015138;28;20029;-56
2022/07/15 08:05:41;;;;;;;0.85;0.30;;;25.00;39.70;;;;;;5014699;28;20452;-57
2022/07/15 08:08:07;;;;;;;1.33;0.40;;;25.00;39.50;;;;;;5014877;28;20074;-58
2022/07/15 08:10:33;;;;;;;1.55;0.30;;;25.00;39.40;;;;;;5014711;28;20065;-60
2022/07/15 08:13:00;;;;;;;1.02;0.40;;;25.00;39.30;;;;;;5014116;28;20061;-55
2022/07/15 08:15:27;;;;;;;0.52;0.30;;;25.00;39.20;;;;;;5014318;28;20048;-55
2022/07/15 08:17:53;;;;;;;0.70;0.20;;;25.00;39.10;;;;;;5013901;28;20487;-55
2022/07/15 08:20:19;;;;;;;0.63;0.28;;;25.10;39.00;;;;;;5013234;28;20068;-56
2022/07/15 08:22:46;;;;;;;0.30;0.13;;;25.10;38.90;;;;;;5013043;28;20051;-58
2022/07/15 08:25:13;;;;;;;1.10;0.40;;;25.10;38.70;;;;;;5007580;28;20095;-55
2022/07/15 08:27:38;;;;;;;0.55;0.17;;;25.10;38.60;;;;;;5009941;28;20429;-51
2022/07/15 08:30:06;;;;;;;0.75;0.20;;;25.20;38.60;;;;;;5012877;28;20376;-49
2022/07/15 08:32:32;;;;;;;0.82;0.20;;;25.20;38.40;;;;;;5011773;28;20441;-54
2022/07/15 08:34:57;;;;;;;2.60;0.30;;;25.20;38.30;;;;;;5012598;28;20026;-55
2022/07/15 08:37:26;;;;;;;0.38;0.20;;;25.30;38.30;;;;;;5012418;28;20369;-54
2022/07/15 08:39:52;;;;;;;0.85;0.40;;;25.30;38.20;;;;;;5014206;28;20034;-58
2022/07/15 08:42:18;;;;;;;1.25;0.52;;;25.30;38.20;;;;;;5012951;28;20040;-54
2022/07/15 08:44:44;;;;;;;2.13;0.30;;;25.30;38.20;;;;;;5013539;28;20449;-53
2022/07/15 08:47:10;;;;;;;0.98;0.30;;;25.30;38.20;;;;;;5011564;28;20044;-57
2022/07/15 08:49:39;;;;;;;0.43;0.25;;;25.30;38.10;;;;;;5013027;28;20500;-55
2022/07/15 08:52:06;;;;;;;1.65;0.20;;;25.30;38.10;;;;;;5012721;28;20038;-56
2022/07/15 08:54:32;;;;;;;1.10;0.57;;;25.30;38.10;;;;;;5014330;28;20026;-53
2022/07/15 08:56:58;;;;;;;0.82;0.30;;;25.40;38.10;;;;;;5012386;28;20058;-57
2022/07/15 08:59:25;;;;;;;0.80;0.25;;;25.40;38.10;;;;;;5012632;28;20315;-55
2022/07/15 09:01:51;;;;;;;0.80;0.20;;;25.30;38.10;;;;;;5014740;28;20053;-53
2022/07/15 09:04:17;;;;;;;0.57;0.22;;;25.40;38.10;;;;;;5013548;28;20034;-54
2022/07/15 09:06:46;;;;;;;0.85;0.30;;;25.30;38.00;;;;;;5011411;28;20068;-52
2022/07/15 09:09:37;;;;;;;1.75;0.45;;;25.30;37.90;;;;;;5013616;28;20053;-57
2022/07/15 09:12:08;;;;;;;0.25;0.20;;;25.40;37.90;;;;;;5012845;28;20100;-55
2022/07/15 09:14:36;;;;;;;0.68;0.38;;;25.30;37.90;;;;;;5017438;28;20047;-57
2022/07/15 09:17:23;;;;;;;1.40;0.30;;;25.30;37.80;;;;;;5017510;28;20092;-57
2022/07/15 09:20:00;;;;;;;0.77;0.30;;;25.30;37.60;;;;;;5016270;28;20038;-53
2022/07/15 09:22:29;;;;;;;0.13;0.10;;;25.30;37.70;;;;;;5016640;28;20037;-49
2022/07/15 09:25:07;;;;;;;1.05;0.30;;;25.30;37.60;;;;;;5018005;28;20037;-50
2022/07/15 09:27:37;;;;;;;1.25;0.30;;;25.30;37.60;;;;;;5016476;28;20072;-53
2022/07/15 09:36:05;;;;;;;0.93;0.30;;;25.40;37.70;;;;;;5015339;28;20353;-56
2022/07/15 09:38:35;;;;;;;0.28;0.10;;;25.30;37.60;;;;;;5015655;28;20041;-52
2022/07/15 09:41:01;;;;;;;0.80;0.22;;;25.30;37.60;;;;;;5016775;28;20052;-55
2022/07/15 09:43:28;;;;;;;0.73;0.30;;;25.30;37.50;;;;;;5015071;28;20500;-53
2022/07/15 09:46:00;;;;;;;0.77;0.30;;;25.30;37.50;;;;;;5012340;28;20080;-53
2022/07/15 09:48:31;;;;;;;1.00;0.20;;;25.40;37.50;;;;;;5011840;28;20046;-58
2022/07/15 09:51:01;;;;;;;0.50;0.30;;;25.40;38.20;;;;;;5016919;28;20050;-55
2022/07/15 09:53:27;;;;;;;0.60;0.20;;;25.40;37.60;;;;;;5014975;28;20030;-53
2022/07/15 09:55:53;;;;;;;0.68;0.40;;;25.40;37.60;;;;;;5017248;28;20117;-54
2022/07/15 09:58:20;;;;;;;0.90;0.20;;;25.40;37.60;;;;;;5012899;28;20113;-52
2022/07/15 10:00:47;;;;;;;0.60;0.20;;;25.40;37.60;;;;;;5017720;28;20065;-55
2022/07/15 10:03:12;;;;;;;0.50;0.20;;;25.40;37.60;;;;;;5010345;28;20121;-49
2022/07/15 10:05:39;;;;;;;0.43;0.20;;;25.40;37.60;;;;;;5016231;28;20445;-60
2022/07/15 10:08:08;;;;;;;1.50;0.30;;;25.40;37.70;;;;;;5013624;28;20033;-54
2022/07/15 10:10:37;;;;;;;0.47;0.20;;;25.40;37.60;;;;;;5017493;28;20057;-50
2022/07/15 10:13:31;;;;;;;0.55;0.15;;;25.40;37.60;;;;;;5014063;28;20033;-58
2022/07/15 10:16:39;;;;;;;0.38;0.20;;;25.40;37.50;;;;;;5017334;28;20440;-51
2022/07/15 10:19:35;;;;;;;0.30;0.20;;;25.40;37.60;;;;;;5003051;28;20133;-54
2022/07/15 10:22:36;;;;;;;1.42;0.40;;;25.40;37.50;;;;;;5015062;28;20029;-55
2022/07/15 10:25:20;;;;;;;0.38;0.32;;;25.40;37.50;;;;;;5011905;28;20034;-51
2022/07/15 10:28:03;;;;;;;0.22;0.10;;;25.40;37.50;;;;;;5014197;28;20026;-55
2022/07/15 10:30:29;;;;;;;0.73;0.40;;;25.40;37.60;;;;;;4997493;28;20074;-49
2022/07/15 10:33:13;;;;;;;1.55;0.20;;;25.40;37.60;;;;;;5012004;28;20061;-56
2022/07/15 10:35:44;;;;;;;0.60;0.30;;;25.40;37.50;;;;;;5007333;28;20084;-52
2022/07/15 10:38:31;;;;;;;0.93;0.20;;;25.40;37.60;;;;;;5016344;28;20117;-51
2022/07/15 10:41:01;;;;;;;0.88;0.30;;;25.40;37.60;;;;;;4997277;28;20041;-51
2022/07/15 10:43:49;;;;;;;0.63;0.25;;;25.40;37.60;;;;;;5002078;28;20041;-52
2022/07/15 10:46:18;;;;;;;0.88;0.20;;;25.40;37.60;;;;;;5006516;28;20038;-57
2022/07/15 10:48:53;;;;;;;0.57;0.15;;;25.40;37.60;;;;;;5007816;28;21004;-50
2022/07/15 10:51:36;;;;;;;0.32;0.20;;;25.40;37.60;;;;;;5007084;28;20034;-57
2022/07/15 10:54:10;;;;;;;1.15;0.35;;;25.40;37.60;;;;;;5008708;28;20037;-54
2022/07/15 10:56:40;;;;;;;1.80;0.30;;;25.40;37.60;;;;;;5007073;28;20037;-54
2022/07/15 10:59:10;;;;;;;0.60;0.32;;;25.40;37.60;;;;;;5010679;28;20026;-56
2022/07/15 11:01:42;;;;;;;0.82;0.22;;;25.50;37.70;;;;;;5009916;28;20030;-59
2022/07/15 11:04:19;;;;;;;0.77;0.30;;;25.50;37.70;;;;;;5008871;28;20041;-52
2022/07/15 11:07:03;;;;;;;0.25;0.20;;;25.50;37.70;;;;;;5006861;28;20038;-55
2022/07/15 11:09:46;;;;;;;0.45;0.20;;;25.40;37.60;;;;;;5007487;28;20030;-50
2022/07/15 11:12:13;;;;;;;0.75;0.40;;;25.50;37.60;;;;;;5008295;28;20041;-53
2022/07/15 11:14:50;;;;;;;0.20;0.10;;;25.50;37.70;;;;;;5007379;28;20026;-51
2022/07/15 11:17:20;;;;;;;0.65;0.30;;;25.50;37.60;;;;;;5007306;28;20189;-52
2022/07/15 11:19:51;;;;;;;0.20;0.20;;;25.40;37.60;;;;;;5011803;28;20022;-54
2022/07/15 11:22:20;;;;;;;0.15;0.13;;;25.50;37.60;;;;;;5007160;28;20036;-52
2022/07/15 11:24:46;;;;;;;0.50;0.17;;;25.50;37.60;;;;;;5012259;28;20460;-54
2022/07/15 11:27:13;;;;;;;0.50;0.50;;;25.50;37.60;;;;;;5008881;28;20119;-57
2022/07/15 11:30:02;;;;;;;0.68;0.30;;;25.50;37.60;;;;;;5006246;28;20156;-59
2022/07/15 11:32:33;;;;;;;0.38;0.20;;;25.50;37.50;;;;;;5010116;28;20046;-56
2022/07/15 11:35:04;;;;;;;0.25;0.20;;;25.50;37.50;;;;;;5006847;28;20121;-60
2022/07/15 11:37:35;;;;;;;0.30;0.20;;;25.50;37.60;;;;;;5010378;28;20038;-61
2022/07/15 11:46:07;;;;;;;0.60;0.28;;;25.50;37.60;;;;;;5006869;28;20033;-58
2022/07/15 11:48:37;;;;;;;1.38;0.30;;;25.50;37.60;;;;;;5014618;28;20046;-59
2022/07/15 11:51:10;;;;;;;0.63;0.20;;;25.40;37.50;;;;;;5012965;28;20052;-60
2022/07/15 11:53:43;;;;;;;0.63;0.43;;;25.50;37.50;;;;;;5012293;28;20113;-59
2022/07/15 11:56:12;;;;;;;0.10;0.10;;;25.50;37.50;;;;;;5011740;28;20026;-55
2022/07/15 11:58:41;;;;;;;0.80;0.20;;;25.50;37.50;;;;;;5013526;28;20117;-56
2022/07/15 12:01:12;;;;;;;1.20;0.30;;;25.50;37.50;;;;;;5012835;28;20021;-57
2022/07/15 12:03:40;;;;;;;0.82;0.20;;;25.50;37.40;;;;;;5012601;28;20068;-59
2022/07/15 12:06:13;;;;;;;0.52;0.20;;;25.50;37.40;;;;;;5012633;28;20087;-55
2022/07/15 12:08:54;;;;;;;0.60;0.30;;;25.50;37.40;;;;;;5016973;28;20036;-57
2022/07/15 12:11:37;;;;;;;0.47;0.20;;;25.50;37.40;;;;;;5010951;28;20057;-59
2022/07/15 12:14:09;;;;;;;0.60;0.20;;;25.50;37.40;;;;;;5014359;28;20045;-55
2022/07/15 12:16:50;;;;;;;1.00;0.30;;;25.60;37.50;;;;;;5010632;28;20050;-58
2022/07/15 12:19:20;;;;;;;0.47;0.20;;;25.50;37.40;;;;;;5012756;28;20148;-59
2022/07/15 12:21:49;;;;;;;0.73;0.30;;;25.50;37.50;;;;;;5013697;28;20132;-60
2022/07/15 12:24:21;;;;;;;0.20;0.10;;;25.60;37.50;;;;;;5014546;28;20045;-56
2022/07/15 12:26:51;;;;;;;0.55;0.28;;;25.60;37.40;;;;;;5013845;28;20030;-58
2022/07/15 12:29:24;;;;;;;0.35;0.20;;;25.60;37.40;;;;;;5011153;28;20112;-58
2022/07/15 12:31:58;;;;;;;0.40;0.20;;;25.50;37.40;;;;;;5012366;28;20066;-55
2022/07/15 12:34:46;;;;;;;0.57;0.28;;;25.60;37.40;;;;;;5013454;28;20115;-55
2022/07/15 12:37:18;;;;;;;1.23;0.17;;;25.60;37.40;;;;;;5012446;28;20030;-60
2022/07/15 12:40:14;;;;;;;0.90;0.30;;;25.60;37.50;;;;;;5008367;28;20087;-58
2022/07/15 12:42:45;;;;;;;0.68;0.25;;;25.60;37.40;;;;;;5008323;28;20057;-56
2022/07/15 12:45:23;;;;;;;0.50;0.20;;;25.60;37.50;;;;;;5012134;28;20050;-52
2022/07/15 12:47:58;;;;;;;0.40;0.20;;;25.60;37.50;;;;;;5016504;28;20026;-52
2022/07/15 12:50:24;;;;;;;0.28;0.10;;;25.60;37.50;;;;;;5010416;28;20125;-51
2022/07/15 12:52:52;;;;;;;2.42;0.20;;;25.60;37.50;;;;;;5017122;28;20038;-54
2022/07/15 12:55:21;;;;;;;0.63;0.20;;;25.60;37.50;;;;;;5017281;28;20026;-54
2022/07/15 12:57:48;;;;;;;0.88;0.28;;;25.60;37.50;;;;;;5016217;28;20045;-58
2022/07/15 13:00:22;;;;;;;3.47;0.20;;;25.60;37.50;;;;;;5017845;28;20333;-50
2022/07/15 13:03:20;;;;;;;0.52;0.43;;;25.60;37.50;;;;;;5017548;28;20469;-50
2022/07/15 13:05:51;;;;;;;1.30;0.20;;;25.60;37.50;;;;;;5017830;28;20034;-54
2022/07/15 13:08:20;;;;;;;0.30;0.20;;;25.60;37.50;;;;;;5016580;28;20045;-50
2022/07/15 13:10:51;;;;;;;0.32;0.20;;;25.70;37.50;;;;;;5015531;28;20141;-52
2022/07/15 13:13:20;;;;;;;0.40;0.13;;;25.70;37.50;;;;;;5017166;28;20125;-51